You are listening to:
KFMY ATIS - Fort Myers, Florida, United States

KFMY 270053Z 09003KT 10SM -RA CLR 26/23 A2987 RMK AO2 RAB29 SLP116 P0000 T02560233

If stream doesn't start automatically press the play button
If stream stops then reload player then press play